Quakertown, NJ (08868)

11:42 AM EST on January 25, 2015 (GMT -0500)
Cherryville | Change Station
CLOSE
Current Station
Personal Weather Station
Location: Flemington, NJ
Elevation: 707 ft
Nearby Weather Stations
Active Advisory: Winter Storm Watch

Elev 707 ft 40.55 °N, 74.90 °W | Updated 13 seconds ago

Mostly Cloudy
Mostly Cloudy
38.3 °F
Feels Like 34 °F
N
6.0
Wind Variable Wind from WSW
Gusts 16.0 mph

Today
High -- | Low -- °F
--% Chance of Precip.
Yesterday
High -- | Low -- °F
Precip. -- in
7:15 AM 5:08 PM
Waxing Crescent, 33% visible
Pressure 29.74 in
Visibility 10.0 miles
Clouds Scattered Clouds 5000 ft
Windchill 34 °F
Dew Point 29 °F
Humidity 69%
Rainfall 0.05 in
Snow Depth Not available.
UV 2 out of 12
Pollen .10 out of 12
Air Quality Not available.
Flu Activity Not available.
METAR KSMQ 251553Z AUTO 30010G19KT 270V330 10SM SCT050 06/M04 A2974 RMK AO2 SLP071 T00561044 TSNO

More Conditions Fewer Conditions

Pressure 29.74 in
Visibility 10.0 miles
Clouds Scattered Clouds 5000 ft
Windchill 34 °F
Dew Point 29 °F
Humidity 69%
Rainfall 0.05 in
Snow Depth Not available.
UV 2 out of 12
Pollen .10 out of 12
Air Quality Not available.
Flu Activity Not available.
METAR KSMQ 251553Z AUTO 30010G19KT 270V330 10SM SCT050 06/M04 A2974 RMK AO2 SLP071 T00561044 TSNO

More Conditions Fewer Conditions

10-Day Weather Forecast

Almanac

Astronomy

Jan. 25, 2015 Rise Set
Actual Time
Civil Twilight
Nautical Twilight
Astronomical Twilight
Moon
Length of Visible Light
Length of Day
Tomorrow will be .
, % of the Moon is Illuminated

Today's Extremes

State Highs State Lows

Community

WunderPhotos

Upload Photos

1,789,963 photos uploaded!

WunderBlogs® & News

Nearby

Air Quality

  Air Quality AQ Index Pollutant
Not available.

Snow Depth

Station Depth Elevation

Earthquake Activity

City Distance Mag. Time & Date
Minimum magnitude displayed is 2.5.

Coastal Water Temperatures

Place Temperature

Nearby Weather Stations